Terminal Aerodrome Forecast
Issued by NWS

Home | Current Version | Previous Version | Text Only | Print | Product List | Glossary On
Versions: 1 2 3 4 5 6 7 8 9 10 11 12 13 14 15 16 17 18
974
FTUS45 KMSO 221722
TAFSMN
TAF
KSMN 221722Z 2218/2318 21010G20KT P6SM -SHRA BKN040 OVC060
     FM222000 26015G25KT P6SM VCSH BKN100
     FM222300 31023G35KT P6SM BKN100
     FM230100 30015G25KT P6SM SCT100
     FM230400 24007KT P6SM BKN150
      AMD LTD TO CLD VIS AND WIND=

USA.gov is the U.S. government's official web portal to all federal, state and local government web resources and services.